createdAt,value
2022-12-03T00:02:04.410Z,99535.97
2022-12-03T00:04:36.877Z,99535.91
2022-12-03T00:07:03.382Z,99542.56
2022-12-03T00:09:30.022Z,99533.94
2022-12-03T00:11:56.482Z,99531.34
2022-12-03T00:14:24.414Z,99532.97
2022-12-03T00:16:52.904Z,99533.06
2022-12-03T00:19:19.508Z,99530.06
2022-12-03T00:21:45.947Z,99526.47
2022-12-03T00:24:12.433Z,99533.88
2022-12-03T00:26:41.204Z,99526.16
2022-12-03T00:29:07.761Z,99530.53
2022-12-03T00:31:34.337Z,99525.81
2022-12-03T00:34:01.366Z,99535.59
2022-12-03T00:36:30.500Z,99534.59
2022-12-03T00:39:00.181Z,99535.75
2022-12-03T00:41:26.636Z,99533.28
2022-12-03T00:43:57.339Z,99531.34
2022-12-03T00:46:24.948Z,99527.44
2022-12-03T00:48:51.602Z,99523.88
2022-12-03T00:51:21.633Z,99527.59
2022-12-03T00:53:48.161Z,99529.50
2022-12-03T00:56:18.129Z,99527.59
2022-12-03T00:58:47.390Z,99525.50
2022-12-03T01:01:14.068Z,99527.44
2022-12-03T01:03:40.607Z,99531.28
2022-12-03T01:06:07.230Z,99517.41
2022-12-03T01:08:36.430Z,99522.59
2022-12-03T01:11:26.484Z,99527.06
2022-12-03T01:13:55.989Z,99527.44
2022-12-03T01:16:25.828Z,99532.47
2022-12-03T01:18:52.848Z,99535.88
2022-12-03T01:21:19.752Z,99531.59
2022-12-03T01:23:46.898Z,99531.00
2022-12-03T01:26:13.544Z,99527.44
2022-12-03T01:28:41.908Z,99522.25
2022-12-03T01:31:27.630Z,99538.78
2022-12-03T01:33:54.219Z,99523.22
2022-12-03T01:36:20.766Z,99532.00
2022-12-03T01:38:48.652Z,99539.00
2022-12-03T01:41:21.010Z,99532.63
2022-12-03T01:43:48.760Z,99530.03
2022-12-03T01:46:19.913Z,99539.06
2022-12-03T01:48:48.320Z,99535.06
2022-12-03T01:51:15.557Z,99529.63
2022-12-03T01:53:48.724Z,99528.00
2022-12-03T01:56:16.892Z,99529.63
2022-12-03T01:58:44.745Z,99521.72
2022-12-03T02:01:14.978Z,99529.72
2022-12-03T02:03:42.184Z,99535.28
2022-12-03T02:06:16.153Z,99531.34
2022-12-03T02:08:42.785Z,99533.13
2022-12-03T02:11:18.343Z,99526.16
2022-12-03T02:13:46.045Z,99530.25
2022-12-03T02:16:12.637Z,99533.13
2022-12-03T02:18:39.304Z,99535.00
2022-12-03T02:21:16.758Z,99535.53
2022-12-03T02:24:08.004Z,99530.25
2022-12-03T02:26:34.555Z,99537.00
2022-12-03T02:29:02.432Z,99533.00
2022-12-03T02:31:29.071Z,99538.78
2022-12-03T02:33:58.701Z,99531.81
2022-12-03T02:36:25.469Z,99538.94
2022-12-03T02:38:52.098Z,99534.41
2022-12-03T02:41:39.984Z,99534.31
2022-12-03T02:44:07.979Z,99536.09
2022-12-03T02:46:35.159Z,99533.66
2022-12-03T02:49:06.563Z,99528.56
2022-12-03T02:51:34.548Z,99538.69
2022-12-03T02:54:01.883Z,99531.66
2022-12-03T02:56:32.503Z,99536.25
2022-12-03T02:59:03.154Z,99532.78
2022-12-03T03:01:30.047Z,99529.03
2022-12-03T03:03:57.038Z,99532.44
2022-12-03T03:06:23.680Z,99532.78
2022-12-03T03:08:50.320Z,99536.84
2022-12-03T03:11:18.606Z,99527.25
2022-12-03T03:13:47.798Z,99525.63
2022-12-03T03:16:14.565Z,99530.03
2022-12-03T03:18:42.015Z,99534.41
2022-12-03T03:21:08.672Z,99533.75
2022-12-03T03:23:38.357Z,99534.56
2022-12-03T03:26:09.342Z,99531.34
2022-12-03T03:28:39.252Z,99535.59
2022-12-03T03:31:08.291Z,99533.59
2022-12-03T03:33:35.245Z,99535.44
2022-12-03T03:36:02.429Z,99532.78
2022-12-03T03:38:30.317Z,99536.25
2022-12-03T03:40:59.777Z,99526.69
2022-12-03T03:43:26.560Z,99522.63
2022-12-03T03:45:53.927Z,99520.75
2022-12-03T03:48:21.506Z,99521.56
2022-12-03T03:50:56.173Z,99520.53
2022-12-03T03:53:24.446Z,99519.88
2022-12-03T03:55:51.430Z,99517.91
2022-12-03T03:58:18.056Z,99515.06
2022-12-03T04:00:45.302Z,99505.31
2022-12-03T04:03:12.661Z,99507.25
2022-12-03T04:05:39.853Z,99507.03
2022-12-03T04:08:06.470Z,99506.06
2022-12-03T04:10:56.139Z,99501.91
2022-12-03T04:13:22.859Z,99502.06
2022-12-03T04:15:49.812Z,99495.22
2022-12-03T04:18:52.168Z,99499.06
2022-12-03T04:21:39.505Z,99509.84
2022-12-03T04:24:07.945Z,99499.75
2022-12-03T04:26:52.941Z,99497.28
2022-12-03T04:29:20.839Z,99498.25
2022-12-03T04:32:06.545Z,99494.94
2022-12-03T04:34:51.856Z,99502.66
2022-12-03T04:37:18.931Z,99501.75
2022-12-03T04:39:45.500Z,99492.72
2022-12-03T04:42:14.753Z,99498.19
2022-12-03T04:44:41.308Z,99495.66
2022-12-03T04:47:09.508Z,99503.53
2022-12-03T04:49:40.430Z,99491.38
2022-12-03T04:52:07.728Z,99491.53
2022-12-03T04:54:34.529Z,99496.72
2022-12-03T04:57:01.544Z,99493.31
2022-12-03T04:59:28.056Z,99495.09
2022-12-03T05:01:54.766Z,99493.22
2022-12-03T05:04:21.370Z,99495.44
2022-12-03T05:06:47.951Z,99497.22
2022-12-03T05:09:17.807Z,99503.09
2022-12-03T05:11:50.262Z,99491.00
2022-12-03T05:14:16.799Z,99492.81
2022-12-03T05:16:43.392Z,99486.47
2022-12-03T05:19:10.113Z,99487.63
2022-12-03T05:21:36.611Z,99490.41
2022-12-03T05:24:03.633Z,99490.13
2022-12-03T05:26:30.258Z,99487.78
2022-12-03T05:28:56.753Z,99486.81
2022-12-03T05:31:23.348Z,99488.34
2022-12-03T05:33:49.994Z,99490.03
2022-12-03T05:36:16.463Z,99491.81
2022-12-03T05:38:43.003Z,99484.22
2022-12-03T05:41:28.030Z,99485.03
2022-12-03T05:43:54.726Z,99480.38
2022-12-03T05:46:21.342Z,99478.69
2022-12-03T05:48:47.983Z,99482.91
2022-12-03T05:51:14.492Z,99478.59
2022-12-03T05:53:41.565Z,99475.13
2022-12-03T05:56:08.142Z,99480.47
2022-12-03T05:58:34.860Z,99478.59
2022-12-03T06:01:01.323Z,99483.94
2022-12-03T06:03:28.193Z,99472.69
2022-12-03T06:05:54.806Z,99485.66
2022-12-03T06:08:24.584Z,99482.09
2022-12-03T06:11:00.307Z,99480.84
2022-12-03T06:13:26.821Z,99478.53
2022-12-03T06:15:53.370Z,99476.38
2022-12-03T06:18:19.890Z,99481.66
2022-12-03T06:20:46.402Z,99472.50
2022-12-03T06:23:12.891Z,99474.75
2022-12-03T06:25:39.452Z,99478.44
2022-12-03T06:28:07.285Z,99487.50
2022-12-03T06:30:35.315Z,99479.94
2022-12-03T06:33:02.138Z,99482.75
2022-12-03T06:35:31.377Z,99485.34
2022-12-03T06:37:57.914Z,99483.34
2022-12-03T06:40:26.314Z,99478.81
2022-12-03T06:42:53.090Z,99485.34
2022-12-03T06:45:19.745Z,99484.00
2022-12-03T06:47:46.475Z,99479.47
2022-12-03T06:50:13.813Z,99481.88
2022-12-03T06:52:40.434Z,99479.63
2022-12-03T06:55:07.726Z,99478.91
2022-12-03T06:57:34.313Z,99481.50
2022-12-03T07:00:00.791Z,99485.13
2022-12-03T07:02:27.359Z,99481.56
2022-12-03T07:04:54.172Z,99478.00
2022-12-03T07:07:26.903Z,99480.06
2022-12-03T07:09:56.764Z,99478.91
2022-12-03T07:12:23.242Z,99489.28
2022-12-03T07:14:49.719Z,99481.16
2022-12-03T07:17:18.626Z,99477.69
2022-12-03T07:19:45.093Z,99477.75
2022-12-03T07:22:11.871Z,99480.69
2022-12-03T07:24:38.507Z,99481.16
2022-12-03T07:27:04.985Z,99480.28
2022-12-03T07:29:31.468Z,99473.47
2022-12-03T07:31:57.940Z,99471.19
2022-12-03T07:34:39.671Z,99474.44
2022-12-03T07:37:06.127Z,99467.69
2022-12-03T07:39:32.749Z,99474.59
2022-12-03T07:41:59.966Z,99472.81
2022-12-03T07:44:26.568Z,99466.66
2022-12-03T07:46:53.073Z,99469.09
2022-12-03T07:49:19.679Z,99468.19
2022-12-03T07:51:53.741Z,99464.06
2022-12-03T07:54:23.819Z,99461.22
2022-12-03T07:56:50.467Z,99459.41
2022-12-03T07:59:17.434Z,99463.25
2022-12-03T08:01:47.121Z,99462.28
2022-12-03T08:04:14.843Z,99461.63
2022-12-03T08:06:41.638Z,99463.59
2022-12-03T08:09:09.969Z,99459.91
2022-12-03T08:11:45.146Z,99455.47
2022-12-03T08:14:13.802Z,99470.13
2022-12-03T08:16:42.815Z,99464.22
2022-12-03T08:19:16.557Z,99453.09
2022-12-03T08:21:43.197Z,99448.72
2022-12-03T08:24:20.690Z,99458.13
2022-12-03T08:26:48.949Z,99461.00
2022-12-03T08:29:18.471Z,99457.41
2022-12-03T08:31:57.213Z,99455.69
2022-12-03T08:34:27.566Z,99456.59
2022-12-03T08:37:06.055Z,99455.06
2022-12-03T08:39:34.942Z,99448.81
2022-12-03T08:42:23.208Z,99461.69
2022-12-03T08:44:49.682Z,99458.41
2022-12-03T08:47:24.122Z,99458.28
2022-12-03T08:50:00.282Z,99468.13
2022-12-03T08:52:35.889Z,99462.94
2022-12-03T08:55:38.868Z,99464.38
2022-12-03T08:58:41.868Z,99463.59
2022-12-03T09:01:11.514Z,99462.66
2022-12-03T09:03:41.048Z,99462.59
2022-12-03T09:06:07.942Z,99469.91
2022-12-03T09:08:34.404Z,99465.53
2022-12-03T09:11:01.414Z,99462.06
2022-12-03T09:13:27.906Z,99465.19
2022-12-03T09:15:54.399Z,99469.41
2022-12-03T09:18:20.961Z,99467.78
2022-12-03T09:20:47.423Z,99456.88
2022-12-03T09:23:14.412Z,99463.59
2022-12-03T09:25:40.943Z,99451.59
2022-12-03T09:28:07.435Z,99457.41
2022-12-03T09:30:33.927Z,99461.69
2022-12-03T09:33:00.501Z,99452.06
2022-12-03T09:35:33.644Z,99454.09
2022-12-03T09:38:00.178Z,99461.16
2022-12-03T09:40:26.672Z,99457.41
2022-12-03T09:42:58.536Z,99454.19
2022-12-03T09:45:27.745Z,99455.53
2022-12-03T09:48:01.875Z,99446.94
2022-12-03T09:50:28.881Z,99446.69
2022-12-03T09:52:59.306Z,99439.72
2022-12-03T09:55:27.806Z,99442.56
2022-12-03T09:57:57.785Z,99435.66
2022-12-03T10:00:31.024Z,99434.53
2022-12-03T10:03:02.308Z,99432.41
2022-12-03T10:05:29.422Z,99427.47
2022-12-03T10:08:03.762Z,99426.91
2022-12-03T10:10:30.530Z,99420.09
2022-12-03T10:12:57.129Z,99423.34
2022-12-03T10:15:23.951Z,99426.00
2022-12-03T10:17:54.474Z,99424.78
2022-12-03T10:20:22.768Z,99424.97
2022-12-03T10:22:49.749Z,99425.94
2022-12-03T10:25:19.454Z,99423.66
2022-12-03T10:27:59.357Z,99429.66
2022-12-03T10:30:28.518Z,99420.75
2022-12-03T10:32:58.012Z,99415.88
2022-12-03T10:35:25.897Z,99414.09
2022-12-03T10:38:06.813Z,99424.06
2022-12-03T10:40:35.766Z,99417.19
2022-12-03T10:43:22.919Z,99412.38
2022-12-03T10:46:03.722Z,99406.94
2022-12-03T10:48:31.389Z,99408.66
2022-12-03T10:51:05.098Z,99410.34
2022-12-03T10:53:37.136Z,99404.50
2022-12-03T10:56:06.662Z,99401.03
2022-12-03T10:58:38.593Z,99399.25
2022-12-03T11:01:19.168Z,99397.78
2022-12-03T11:03:47.830Z,99398.50
2022-12-03T11:06:17.442Z,99403.16
2022-12-03T11:08:49.260Z,99397.06
2022-12-03T11:11:21.008Z,99401.44
2022-12-03T11:13:51.538Z,99392.28
2022-12-03T11:16:53.368Z,99386.78
2022-12-03T11:19:39.752Z,99380.91
2022-12-03T11:22:06.199Z,99380.75
2022-12-03T11:24:35.329Z,99370.63
2022-12-03T11:27:01.790Z,99371.44
2022-12-03T11:29:46.200Z,99380.09
2022-12-03T11:32:35.152Z,99369.81
2022-12-03T11:35:01.653Z,99364.06
2022-12-03T11:37:30.087Z,99362.28
2022-12-03T11:40:24.781Z,99357.91
2022-12-03T11:42:51.804Z,99359.34
2022-12-03T11:45:35.138Z,99359.41
2022-12-03T11:48:10.609Z,99350.50
2022-12-03T11:50:53.939Z,99352.44
2022-12-03T11:53:26.184Z,99349.03
2022-12-03T11:56:08.941Z,99357.31
2022-12-03T11:58:38.292Z,99353.59
2022-12-03T12:01:07.432Z,99356.91
2022-12-03T12:03:54.348Z,99355.03
2022-12-03T12:06:23.952Z,99352.53
2022-12-03T12:08:59.676Z,99348.88
2022-12-03T12:11:31.703Z,99346.69
2022-12-03T12:14:12.802Z,99343.03
2022-12-03T12:16:51.366Z,99344.44
2022-12-03T12:20:10.773Z,99333.31
2022-12-03T12:22:37.279Z,99337.84
2022-12-03T12:25:06.336Z,99331.66
2022-12-03T12:27:45.064Z,99333.72
2022-12-03T12:30:17.564Z,99318.06
2022-12-03T12:33:07.698Z,99321.47
2022-12-03T12:35:34.328Z,99316.16
2022-12-03T12:38:10.781Z,99306.53
2022-12-03T12:40:40.110Z,99309.13
2022-12-03T12:43:32.123Z,99318.69
2022-12-03T12:46:45.570Z,99310.84
2022-12-03T12:49:00.005Z,99316.03
2022-12-03T12:51:26.765Z,99312.38
2022-12-03T12:53:53.815Z,99311.41
2022-12-03T12:56:30.258Z,99308.97
2022-12-03T12:59:01.058Z,99309.72
2022-12-03T13:01:32.012Z,99309.63
2022-12-03T13:03:59.532Z,99305.25
2022-12-03T13:06:29.125Z,99302.06
2022-12-03T13:08:57.077Z,99302.88
2022-12-03T13:11:41.338Z,99301.94
2022-12-03T13:14:34.117Z,99299.47
2022-12-03T13:17:07.719Z,99302.75
2022-12-03T13:19:47.355Z,99297.78
2022-12-03T13:22:20.090Z,99305.56
2022-12-03T13:24:50.640Z,99294.75
2022-12-03T13:27:17.103Z,99305.06
2022-12-03T13:29:45.169Z,99297.38
2022-12-03T13:32:16.582Z,99292.59
2022-12-03T13:34:44.561Z,99289.84
2022-12-03T13:37:26.913Z,99285.59
2022-12-03T13:39:58.458Z,99293.41
2022-12-03T13:42:39.328Z,99284.78
2022-12-03T13:45:14.945Z,99279.94
2022-12-03T13:47:46.632Z,99279.75
2022-12-03T13:50:25.109Z,99292.66
2022-12-03T13:52:52.932Z,99285.91
2022-12-03T13:55:29.895Z,99285.13
2022-12-03T13:57:57.371Z,99279.94
2022-12-03T14:00:24.319Z,99280.72
2022-12-03T14:02:54.292Z,99286.72
2022-12-03T14:05:21.265Z,99287.31
2022-12-03T14:07:47.816Z,99283.00
2022-12-03T14:10:14.442Z,99281.78
2022-12-03T14:12:40.924Z,99277.75
2022-12-03T14:15:09.105Z,99274.75
2022-12-03T14:17:35.614Z,99281.78
2022-12-03T14:20:03.830Z,99275.56
2022-12-03T14:22:30.883Z,99275.00
2022-12-03T14:24:57.861Z,99266.81
2022-12-03T14:27:24.855Z,99269.53
2022-12-03T14:29:52.100Z,99272.16
2022-12-03T14:32:19.140Z,99266.06
2022-12-03T14:34:45.838Z,99256.56
2022-12-03T14:37:12.437Z,99263.38
2022-12-03T14:39:41.822Z,99265.84
2022-12-03T14:42:14.297Z,99258.13
2022-12-03T14:44:51.524Z,99261.47
2022-12-03T14:47:22.238Z,99261.53
2022-12-03T14:49:50.427Z,99260.88
2022-12-03T14:52:17.532Z,99259.97
2022-12-03T14:54:45.823Z,99265.03
2022-12-03T14:57:14.734Z,99271.25
2022-12-03T14:59:42.597Z,99269.25
2022-12-03T15:02:10.761Z,99268.97
2022-12-03T15:04:39.997Z,99267.06
2022-12-03T15:07:07.086Z,99264.59
2022-12-03T15:09:33.716Z,99268.97
2022-12-03T15:12:00.834Z,99276.53
2022-12-03T15:14:27.763Z,99272.41
2022-12-03T15:16:54.393Z,99259.50
2022-12-03T15:19:23.378Z,99261.94
2022-12-03T15:21:55.939Z,99263.06
2022-12-03T15:24:22.421Z,99261.47
2022-12-03T15:26:49.600Z,99268.44
2022-12-03T15:29:16.120Z,99267.34
2022-12-03T15:31:42.687Z,99257.72
2022-12-03T15:34:09.387Z,99265.56
2022-12-03T15:36:36.382Z,99267.19
2022-12-03T15:39:04.106Z,99271.66
2022-12-03T15:41:33.852Z,99269.31
2022-12-03T15:44:02.233Z,99270.75
2022-12-03T15:46:34.092Z,99265.66
2022-12-03T15:49:00.697Z,99262.16
2022-12-03T15:51:30.262Z,99269.88
2022-12-03T15:53:56.751Z,99261.19
2022-12-03T15:56:23.235Z,99255.28
2022-12-03T15:58:49.750Z,99256.09
2022-12-03T16:01:19.483Z,99245.00
2022-12-03T16:03:46.127Z,99260.16
2022-12-03T16:06:12.928Z,99252.53
2022-12-03T16:08:39.430Z,99248.41
2022-12-03T16:11:08.839Z,99245.63
2022-12-03T16:13:37.539Z,99247.34
2022-12-03T16:16:07.117Z,99244.00
2022-12-03T16:18:33.579Z,99246.59
2022-12-03T16:21:03.396Z,99251.09
2022-12-03T16:23:30.360Z,99243.84
2022-12-03T16:25:56.960Z,99259.41
2022-12-03T16:28:26.572Z,99257.88
2022-12-03T16:30:53.556Z,99260.22
2022-12-03T16:33:27.017Z,99252.78
2022-12-03T16:35:54.239Z,99256.97
2022-12-03T16:38:20.746Z,99266.47
2022-12-03T16:40:48.466Z,99267.28
2022-12-03T16:43:14.952Z,99263.06
2022-12-03T16:45:56.184Z,99263.97
2022-12-03T16:48:26.279Z,99277.03
2022-12-03T16:50:53.265Z,99268.09
2022-12-03T16:53:19.781Z,99261.19
2022-12-03T16:55:46.233Z,99269.16
2022-12-03T16:58:17.274Z,99271.03
2022-12-03T17:00:43.737Z,99265.66
2022-12-03T17:03:10.325Z,99259.50
2022-12-03T17:05:40.404Z,99252.78
2022-12-03T17:08:06.968Z,99251.09
2022-12-03T17:10:33.562Z,99249.28
2022-12-03T17:13:15.277Z,99258.53
2022-12-03T17:15:41.834Z,99253.34
2022-12-03T17:18:09.038Z,99255.94
2022-12-03T17:20:36.331Z,99244.09
2022-12-03T17:23:03.558Z,99251.00
2022-12-03T17:25:31.266Z,99247.75
2022-12-03T17:27:57.872Z,99249.94
2022-12-03T17:30:24.408Z,99248.88
2022-12-03T17:32:51.991Z,99250.00
2022-12-03T17:35:20.485Z,99246.28
2022-12-03T17:37:50.050Z,99250.75
2022-12-03T17:40:17.560Z,99247.41
2022-12-03T17:42:46.062Z,99246.44
2022-12-03T17:45:13.034Z,99253.25
2022-12-03T17:47:39.947Z,99238.72
2022-12-03T17:50:08.101Z,99249.13
2022-12-03T17:52:34.782Z,99243.94
2022-12-03T17:55:12.169Z,99250.75
2022-12-03T17:57:43.856Z,99249.94
2022-12-03T18:00:11.009Z,99250.75
2022-12-03T18:02:37.484Z,99237.84
2022-12-03T18:05:04.329Z,99248.22
2022-12-03T18:07:33.897Z,99242.06
2022-12-03T18:10:00.554Z,99235.56
2022-12-03T18:12:27.194Z,99245.41
2022-12-03T18:14:56.424Z,99242.81
2022-12-03T18:17:25.592Z,99243.69
2022-12-03T18:19:52.483Z,99237.84
2022-12-03T18:22:19.375Z,99244.59
2022-12-03T18:24:50.242Z,99241.19
2022-12-03T18:27:18.516Z,99239.81
2022-12-03T18:29:44.993Z,99235.44
2022-12-03T18:32:27.046Z,99233.81
2022-12-03T18:34:54.780Z,99231.22
2022-12-03T18:37:21.984Z,99225.13
2022-12-03T18:39:48.618Z,99234.63
2022-12-03T18:42:21.881Z,99230.47
2022-12-03T18:44:51.133Z,99238.31
2022-12-03T18:47:20.656Z,99227.94
2022-12-03T18:49:47.894Z,99213.19
2022-12-03T18:52:23.287Z,99223.34
2022-12-03T18:54:49.826Z,99226.91
2022-12-03T18:57:16.415Z,99219.94
2022-12-03T18:59:42.925Z,99221.72
2022-12-03T19:05:11.701Z,99218.47
2022-12-03T19:07:43.170Z,99219.41
2022-12-03T19:10:10.904Z,99224.59
2022-12-03T19:12:37.903Z,99221.06
2022-12-03T19:15:05.936Z,99216.69
2022-12-03T19:17:38.095Z,99217.63
2022-12-03T19:20:05.280Z,99221.88
2022-12-03T19:22:33.193Z,99215.94
2022-12-03T19:24:59.875Z,99223.72
2022-12-03T19:27:26.405Z,99222.19
2022-12-03T19:29:53.139Z,99215.31
2022-12-03T19:32:19.861Z,99216.25
2022-12-03T19:34:46.459Z,99212.84
2022-12-03T19:37:13.161Z,99218.03
2022-12-03T19:39:39.648Z,99206.09
2022-12-03T19:42:06.158Z,99209.50
2022-12-03T19:44:33.097Z,99210.19
2022-12-03T19:46:59.695Z,99205.88
2022-12-03T19:49:26.495Z,99210.09
2022-12-03T19:51:53.254Z,99207.59
2022-12-03T19:54:19.834Z,99206.78
2022-12-03T19:56:46.427Z,99208.56
2022-12-03T19:59:14.146Z,99212.19
2022-12-03T20:01:43.076Z,99214.69
2022-12-03T20:04:12.341Z,99212.19
2022-12-03T20:06:39.195Z,99213.00
2022-12-03T20:09:09.300Z,99217.38
2022-12-03T20:11:35.916Z,99217.22
2022-12-03T20:14:08.374Z,99220.84
2022-12-03T20:16:35.045Z,99220.84
2022-12-03T20:19:04.335Z,99208.69
2022-12-03T20:21:33.241Z,99207.66
2022-12-03T20:24:00.087Z,99203.44
2022-12-03T20:26:28.536Z,99216.47
2022-12-03T20:28:56.477Z,99214.84
2022-12-03T20:31:25.815Z,99213.16
2022-12-03T20:33:56.235Z,99200.84
2022-12-03T20:36:23.293Z,99206.25
2022-12-03T20:38:56.974Z,99202.84
2022-12-03T20:41:23.980Z,99200.25
2022-12-03T20:43:51.301Z,99202.06
2022-12-03T20:46:30.063Z,99207.13
2022-12-03T20:48:57.537Z,99213.88
2022-12-03T20:51:31.039Z,99197.56
2022-12-03T20:53:59.576Z,99204.72
2022-12-03T20:56:31.297Z,99206.44
2022-12-03T20:59:01.866Z,99195.94
2022-12-03T21:01:28.981Z,99199.34
2022-12-03T21:03:56.803Z,99202.84
2022-12-03T21:06:25.862Z,99198.47
2022-12-03T21:08:54.336Z,99191.34
2022-12-03T21:11:24.206Z,99195.88
2022-12-03T21:13:50.935Z,99188.25
2022-12-03T21:16:45.674Z,99196.75
2022-12-03T21:19:09.778Z,99197.66
2022-12-03T21:21:36.374Z,99204.31
2022-12-03T21:24:02.925Z,99201.72
2022-12-03T21:26:29.538Z,99201.72
2022-12-03T21:28:56.096Z,99200.84
2022-12-03T21:31:28.858Z,99201.22
2022-12-03T21:33:56.633Z,99191.81
2022-12-03T21:36:25.253Z,99196.19
2022-12-03T21:38:52.044Z,99187.44
2022-12-03T21:41:22.275Z,99188.25
2022-12-03T21:43:48.758Z,99190.03
2022-12-03T21:47:12.753Z,99190.03
2022-12-03T21:49:03.941Z,99191.81
2022-12-03T21:51:30.738Z,99189.28
2022-12-03T21:53:57.338Z,99187.19
2022-12-03T21:56:23.912Z,99185.41
2022-12-03T21:58:50.395Z,99183.88
2022-12-03T22:01:20.288Z,99182.97
2022-12-03T22:03:47.537Z,99179.78
2022-12-03T22:06:14.951Z,99187.38
2022-12-03T22:08:41.922Z,99186.47
2022-12-03T22:11:13.744Z,99186.38
2022-12-03T22:13:40.997Z,99186.47
2022-12-03T22:16:13.818Z,99189.16
2022-12-03T22:18:40.834Z,99185.88
2022-12-03T22:21:12.775Z,99184.66
2022-12-03T22:23:39.616Z,99175.91
2022-12-03T22:26:11.491Z,99178.75
2022-12-03T22:28:38.079Z,99169.97
2022-12-03T22:31:08.769Z,99182.25
2022-12-03T22:33:36.386Z,99174.47
2022-12-03T22:36:08.455Z,99170.91
2022-12-03T22:38:35.011Z,99177.88
2022-12-03T22:41:06.220Z,99176.22
2022-12-03T22:43:33.293Z,99169.25
2022-12-03T22:46:00.114Z,99178.84
2022-12-03T22:48:26.733Z,99170.09
2022-12-03T22:50:53.313Z,99172.81
2022-12-03T22:53:20.357Z,99167.50
2022-12-03T22:55:58.257Z,99158.94
2022-12-03T22:58:26.291Z,99161.69
2022-12-03T23:00:54.560Z,99163.31
2022-12-03T23:03:23.493Z,99158.00
2022-12-03T23:05:50.038Z,99154.56
2022-12-03T23:08:19.390Z,99157.38
2022-12-03T23:10:50.850Z,99164.06
2022-12-03T23:13:17.784Z,99155.16
2022-12-03T23:15:49.700Z,99158.47
2022-12-03T23:18:17.452Z,99153.97
2022-12-03T23:20:52.967Z,99145.28
2022-12-03T23:23:20.991Z,99135.13
2022-12-03T23:25:57.528Z,99137.94
2022-12-03T23:28:27.287Z,99139.75
2022-12-03T23:30:54.252Z,99137.94
2022-12-03T23:33:20.910Z,99136.97
2022-12-03T23:35:47.492Z,99138.09
2022-12-03T23:38:14.476Z,99141.53
2022-12-03T23:40:47.740Z,99126.66
2022-12-03T23:43:17.458Z,99130.97
2022-12-03T23:45:43.954Z,99131.13
2022-12-03T23:48:10.661Z,99130.81
2022-12-03T23:50:41.212Z,99121.47
2022-12-03T23:53:07.782Z,99121.66
2022-12-03T23:55:34.279Z,99122.66
2022-12-03T23:58:00.814Z,99115.69
